createdAt,value
2022-11-06T00:00:46.936Z,101021.72
2022-11-06T00:03:16.307Z,101014.22
2022-11-06T00:05:58.443Z,101021.16
2022-11-06T00:08:33.565Z,101024.56
2022-11-06T00:11:12.408Z,101027.91
2022-11-06T00:13:44.578Z,101017.56
2022-11-06T00:16:14.949Z,101023.44
2022-11-06T00:18:44.316Z,101015.66
2022-11-06T00:21:20.903Z,101012.31
2022-11-06T00:23:51.225Z,101021.78
2022-11-06T00:26:22.218Z,101012.25
2022-11-06T00:28:54.232Z,101014.16
2022-11-06T00:31:25.080Z,101006.22
2022-11-06T00:33:55.842Z,101009.22
2022-11-06T00:36:31.327Z,101014.22
2022-11-06T00:39:01.665Z,101020.03
2022-11-06T00:41:36.686Z,101011.97
2022-11-06T00:44:07.942Z,101018.97
2022-11-06T00:46:42.299Z,101023.34
2022-11-06T00:49:11.542Z,100991.31
2022-11-06T00:51:41.187Z,101015.66
2022-11-06T00:54:13.272Z,101017.38
2022-11-06T00:56:42.942Z,101024.16
2022-11-06T00:59:15.765Z,101014.03
2022-11-06T01:01:47.062Z,101017.53
2022-11-06T01:04:23.782Z,101020.41
2022-11-06T01:06:56.299Z,101019.66
2022-11-06T01:09:27.049Z,101005.53
2022-11-06T01:12:14.739Z,101026.50
2022-11-06T01:14:56.173Z,101023.16
2022-11-06T01:17:25.409Z,101018.94
2022-11-06T01:19:54.551Z,101011.28
2022-11-06T01:22:23.906Z,101012.25
2022-11-06T01:24:53.236Z,101021.41
2022-11-06T01:27:27.012Z,101027.84
2022-11-06T01:29:58.839Z,101028.53
2022-11-06T01:32:28.192Z,101023.44
2022-11-06T01:34:57.323Z,101023.09
2022-11-06T01:37:26.687Z,101024.84
2022-11-06T01:39:55.742Z,101029.94
2022-11-06T01:42:24.927Z,101025.00
2022-11-06T01:45:33.415Z,101022.31
2022-11-06T01:48:03.143Z,101025.66
2022-11-06T01:50:32.808Z,101017.56
2022-11-06T01:53:03.028Z,101024.41
2022-11-06T01:55:37.111Z,101019.47
2022-11-06T01:58:09.671Z,101020.25
2022-11-06T02:00:42.728Z,101006.22
2022-11-06T02:03:13.294Z,101018.34
2022-11-06T02:05:42.793Z,101023.22
2022-11-06T02:08:16.224Z,101015.22
2022-11-06T02:10:52.062Z,101009.00
2022-11-06T02:13:34.373Z,101011.38
2022-11-06T02:16:11.760Z,101006.31
2022-11-06T02:18:57.671Z,100995.38
2022-11-06T02:21:55.959Z,101019.69
2022-11-06T02:24:57.181Z,101008.38
2022-11-06T02:27:30.584Z,101008.38
2022-11-06T02:30:04.802Z,100996.78
2022-11-06T02:32:39.583Z,101006.25
2022-11-06T02:35:18.793Z,101011.63
2022-11-06T02:37:51.196Z,101015.00
2022-11-06T02:40:22.677Z,101012.28
2022-11-06T02:43:02.795Z,101012.13
2022-11-06T02:45:41.487Z,101005.22
2022-11-06T02:48:13.572Z,101010.25
2022-11-06T02:50:47.791Z,101004.34
2022-11-06T02:53:20.544Z,101003.41
2022-11-06T02:55:52.844Z,100981.22
2022-11-06T02:58:28.108Z,101004.09
2022-11-06T03:01:03.351Z,100989.41
2022-11-06T03:03:35.159Z,101011.19
2022-11-06T03:06:09.436Z,101002.50
2022-11-06T03:08:43.026Z,101015.63
2022-11-06T03:11:21.033Z,101007.38
2022-11-06T03:13:58.331Z,101005.84
2022-11-06T03:16:37.662Z,101005.63
2022-11-06T03:19:13.352Z,101010.31
2022-11-06T03:21:54.740Z,101001.88
2022-11-06T03:24:33.248Z,101002.41
2022-11-06T03:27:14.356Z,101009.66
2022-11-06T03:29:49.893Z,101002.66
2022-11-06T03:32:22.733Z,100997.25
2022-11-06T03:34:57.088Z,100972.06
2022-11-06T03:37:32.517Z,100996.31
2022-11-06T03:40:06.513Z,100986.94
2022-11-06T03:42:43.757Z,100972.78
2022-11-06T03:45:20.081Z,100989.16
2022-11-06T03:47:51.742Z,100993.19
2022-11-06T03:50:27.787Z,100993.47
2022-11-06T03:53:02.730Z,100974.22
2022-11-06T03:55:36.954Z,100953.66
2022-11-06T03:58:10.884Z,100993.94
2022-11-06T04:00:45.019Z,100993.78
2022-11-06T04:03:20.391Z,100988.69
2022-11-06T04:05:53.856Z,100982.97
2022-11-06T04:08:40.499Z,100989.78
2022-11-06T04:11:27.231Z,100988.84
2022-11-06T04:14:03.970Z,100996.00
2022-11-06T04:16:37.838Z,100996.72
2022-11-06T04:19:17.031Z,100995.50
2022-11-06T04:22:02.659Z,100969.00
2022-11-06T04:24:56.645Z,100997.19
2022-11-06T04:27:46.218Z,100989.94
2022-11-06T04:30:17.909Z,100996.47
2022-11-06T04:33:01.832Z,100983.53
2022-11-06T04:35:40.791Z,100989.94
2022-11-06T04:38:16.620Z,100988.69
2022-11-06T04:40:56.081Z,100995.34
2022-11-06T04:43:37.162Z,100986.94
2022-11-06T04:46:10.416Z,100988.84
2022-11-06T04:48:43.009Z,100990.63
2022-11-06T04:51:15.202Z,100991.47
2022-11-06T04:53:45.241Z,100990.25
2022-11-06T04:56:20.123Z,100986.94
2022-11-06T04:58:50.653Z,100996.16
2022-11-06T05:01:19.903Z,100963.44
2022-11-06T05:03:51.127Z,100997.34
2022-11-06T05:06:23.543Z,101009.97
2022-11-06T05:08:57.299Z,101009.25
2022-11-06T05:11:26.364Z,101008.56
2022-11-06T05:13:55.554Z,100993.84
2022-11-06T05:16:24.636Z,101010.47
2022-11-06T05:18:55.869Z,101006.16
2022-11-06T05:21:38.049Z,101004.88
2022-11-06T05:24:07.744Z,101006.63
2022-11-06T05:26:36.972Z,101017.34
2022-11-06T05:29:06.232Z,101010.47
2022-11-06T05:31:35.448Z,101005.47
2022-11-06T05:34:06.625Z,101000.63
2022-11-06T05:36:36.056Z,101003.94
2022-11-06T05:39:05.567Z,100999.97
2022-11-06T05:41:34.962Z,100996.94
2022-11-06T05:44:04.465Z,100989.00
2022-11-06T05:46:50.199Z,101003.88
2022-11-06T05:49:21.989Z,100991.41
2022-11-06T05:51:51.404Z,101000.19
2022-11-06T05:54:20.710Z,101008.81
2022-11-06T05:56:49.895Z,100998.47
2022-11-06T05:59:19.315Z,100983.09
2022-11-06T06:01:48.653Z,101008.97
2022-11-06T06:04:17.867Z,101011.03
2022-11-06T06:06:49.143Z,101003.69
2022-11-06T06:09:18.338Z,101009.31
2022-11-06T06:11:47.524Z,101010.59
2022-11-06T06:14:17.817Z,101000.94
2022-11-06T06:16:47.072Z,100997.50
2022-11-06T06:19:16.456Z,100992.66
2022-11-06T06:21:45.477Z,100966.53
2022-11-06T06:24:16.638Z,100978.47
2022-11-06T06:26:45.803Z,100978.69
2022-11-06T06:29:15.060Z,100980.81
2022-11-06T06:31:44.397Z,100985.03
2022-11-06T06:34:14.113Z,100982.63
2022-11-06T06:36:43.365Z,100973.84
2022-11-06T06:39:12.555Z,100979.66
2022-11-06T06:41:43.881Z,100972.53
2022-11-06T06:44:18.457Z,100962.47
2022-11-06T06:46:47.745Z,100981.81
2022-11-06T06:49:16.905Z,100981.69
2022-11-06T06:51:46.221Z,100964.22
2022-11-06T06:54:15.343Z,100975.44
2022-11-06T06:56:46.506Z,100970.47
2022-11-06T06:59:16.016Z,100983.00
2022-11-06T07:01:45.393Z,100970.19
2022-11-06T07:04:14.762Z,100976.88
2022-11-06T07:06:44.220Z,100985.91
2022-11-06T07:12:00.989Z,100978.94
2022-11-06T07:14:30.296Z,100989.63
2022-11-06T07:16:59.523Z,100983.75
2022-11-06T07:19:28.966Z,100981.97
2022-11-06T07:21:58.010Z,100991.00
2022-11-06T07:24:27.285Z,100987.50
2022-11-06T07:26:56.543Z,100982.00
2022-11-06T07:29:27.740Z,100987.88
2022-11-06T07:32:02.089Z,100984.97
2022-11-06T07:34:31.660Z,100988.22
2022-11-06T07:37:07.453Z,100986.63
2022-11-06T07:39:37.513Z,100981.72
2022-11-06T07:42:06.926Z,100980.38
2022-11-06T07:44:41.145Z,100978.81
2022-11-06T07:47:11.042Z,100976.00
2022-11-06T07:49:40.821Z,100971.06
2022-11-06T07:52:10.494Z,100986.03
2022-11-06T07:54:39.991Z,100982.78
2022-11-06T07:57:09.343Z,100989.13
2022-11-06T07:59:42.159Z,100980.66
2022-11-06T08:02:13.530Z,100972.94
2022-11-06T08:04:42.841Z,100973.16
2022-11-06T08:07:12.464Z,100974.13
2022-11-06T08:09:44.704Z,100978.72
2022-11-06T08:12:14.292Z,100965.69
2022-11-06T08:14:46.228Z,100981.25
2022-11-06T08:17:15.494Z,100973.13
2022-11-06T08:19:45.650Z,100935.28
2022-11-06T08:22:15.148Z,100927.28
2022-11-06T08:24:44.219Z,100986.22
2022-11-06T08:27:13.904Z,100984.19
2022-11-06T08:29:45.628Z,100979.28
2022-11-06T08:32:19.847Z,100982.56
2022-11-06T08:34:49.403Z,100984.91
2022-11-06T08:37:19.213Z,100984.75
2022-11-06T08:39:49.432Z,100981.28
2022-11-06T08:42:18.689Z,100977.47
2022-11-06T08:44:50.195Z,100962.56
2022-11-06T08:47:19.977Z,100954.69
2022-11-06T08:49:49.636Z,100974.44
2022-11-06T08:52:19.346Z,100986.88
2022-11-06T08:54:48.567Z,100960.59
2022-11-06T08:57:31.972Z,100977.63
2022-11-06T09:00:06.445Z,100973.25
2022-11-06T09:02:36.134Z,100969.28
2022-11-06T09:05:05.623Z,100974.84
2022-11-06T09:07:35.122Z,100965.31
2022-11-06T09:10:04.445Z,100959.63
2022-11-06T09:12:33.725Z,100963.28
2022-11-06T09:15:05.389Z,100961.31
2022-11-06T09:17:34.917Z,100962.84
2022-11-06T09:20:04.309Z,100958.34
2022-11-06T09:22:33.644Z,100953.00
2022-11-06T09:25:04.307Z,100949.81
2022-11-06T09:27:34.365Z,100951.00
2022-11-06T09:30:06.086Z,100960.16
2022-11-06T09:32:35.503Z,100954.63
2022-11-06T09:35:04.889Z,100945.88
2022-11-06T09:37:34.179Z,100955.28
2022-11-06T09:40:06.501Z,100954.47
2022-11-06T09:42:50.333Z,100955.69
2022-11-06T09:45:24.475Z,100950.41
2022-11-06T09:48:00.688Z,100936.34
2022-11-06T09:50:34.317Z,100942.09
2022-11-06T09:53:09.026Z,100939.25
2022-11-06T09:58:27.308Z,100939.72
2022-11-06T10:01:01.581Z,100931.31
2022-11-06T10:03:41.720Z,100934.53
2022-11-06T10:06:16.700Z,100914.66
2022-11-06T10:08:46.163Z,100920.03
2022-11-06T10:11:43.560Z,100924.31
2022-11-06T10:14:23.667Z,100907.16
2022-11-06T10:17:01.649Z,100916.22
2022-11-06T10:19:43.819Z,100894.41
2022-11-06T10:22:17.724Z,100913.22
2022-11-06T10:25:02.297Z,100914.81
2022-11-06T10:27:41.989Z,100897.09
2022-11-06T10:30:14.553Z,100927.16
2022-11-06T10:33:31.136Z,100903.28
2022-11-06T10:36:05.699Z,100908.06
2022-11-06T10:38:53.661Z,100914.38
2022-11-06T10:41:32.376Z,100909.72
2022-11-06T10:44:04.965Z,100907.13
2022-11-06T10:46:38.666Z,100918.59
2022-11-06T10:49:27.773Z,100920.53
2022-11-06T10:52:12.499Z,100920.47
2022-11-06T10:54:57.973Z,100917.53
2022-11-06T10:57:34.794Z,100921.38
2022-11-06T11:00:05.102Z,100901.59
2022-11-06T11:02:37.275Z,100929.38
2022-11-06T11:05:16.359Z,100916.56
2022-11-06T11:07:48.149Z,100923.69
2022-11-06T11:10:34.487Z,100923.28
2022-11-06T11:13:21.553Z,100924.13
2022-11-06T11:15:51.128Z,100920.19
2022-11-06T11:18:30.477Z,100913.69
2022-11-06T11:21:21.601Z,100906.69
2022-11-06T11:24:08.258Z,100908.84
2022-11-06T11:26:41.784Z,100900.56
2022-11-06T11:29:17.862Z,100901.13
2022-11-06T11:31:59.345Z,100896.31
2022-11-06T11:34:31.291Z,100890.47
2022-11-06T11:37:05.023Z,100884.94
2022-11-06T11:39:37.043Z,100891.59
2022-11-06T11:42:23.401Z,100885.56
2022-11-06T11:45:20.229Z,100866.78
2022-11-06T11:47:50.937Z,100874.69
2022-11-06T11:50:31.240Z,100880.63
2022-11-06T11:53:10.451Z,100887.94
2022-11-06T11:55:50.236Z,100870.38
2022-11-06T11:58:24.749Z,100893.03
2022-11-06T12:00:57.066Z,100881.22
2022-11-06T12:03:31.031Z,100873.00
2022-11-06T12:06:10.508Z,100883.81
2022-11-06T12:08:48.480Z,100873.84
2022-11-06T12:11:22.383Z,100878.94
2022-11-06T12:14:19.595Z,100873.31
2022-11-06T12:16:52.884Z,100869.50
2022-11-06T12:19:26.544Z,100862.25
2022-11-06T12:22:00.872Z,100848.78
2022-11-06T12:24:39.616Z,100863.97
2022-11-06T12:27:15.571Z,100870.94
2022-11-06T12:29:53.556Z,100870.56
2022-11-06T12:32:34.147Z,100843.91
2022-11-06T12:35:13.293Z,100866.13
2022-11-06T12:37:50.544Z,100859.31
2022-11-06T12:40:25.886Z,100859.66
2022-11-06T12:43:02.455Z,100854.69
2022-11-06T12:45:54.189Z,100856.13
2022-11-06T12:56:04.616Z,100852.56
2022-11-06T12:59:06.123Z,100851.84
2022-11-06T13:01:53.001Z,100823.34
2022-11-06T13:04:42.690Z,100827.88
2022-11-06T13:07:37.671Z,100848.28
2022-11-06T13:10:26.077Z,100850.75
2022-11-06T13:13:15.421Z,100844.81
2022-11-06T13:15:54.776Z,100842.13
2022-11-06T13:18:32.499Z,100838.94
2022-11-06T13:21:07.261Z,100839.84
2022-11-06T13:23:41.716Z,100844.72
2022-11-06T13:26:16.921Z,100848.84
2022-11-06T13:28:57.610Z,100842.19
2022-11-06T13:31:43.584Z,100856.13
2022-11-06T13:34:19.421Z,100843.38
2022-11-06T13:36:49.304Z,100843.03
2022-11-06T13:39:24.845Z,100841.16
2022-11-06T13:41:55.288Z,100847.28
2022-11-06T13:44:27.482Z,100829.16
2022-11-06T13:47:01.103Z,100838.94
2022-11-06T13:49:38.790Z,100822.19
2022-11-06T13:52:16.535Z,100827.03
2022-11-06T13:55:07.224Z,100833.13
2022-11-06T13:57:57.656Z,100831.38
2022-11-06T14:00:42.188Z,100829.81
2022-11-06T14:03:46.757Z,100814.25
2022-11-06T14:06:20.850Z,100821.50
2022-11-06T14:08:54.373Z,100830.53
2022-11-06T14:11:29.041Z,100825.47
2022-11-06T14:14:02.144Z,100813.53
2022-11-06T14:16:35.039Z,100828.06
2022-11-06T14:19:10.347Z,100817.75
2022-11-06T14:21:49.396Z,100824.75
2022-11-06T14:24:31.520Z,100807.44
2022-11-06T14:27:02.209Z,100829.16
2022-11-06T14:29:58.706Z,100816.06
2022-11-06T14:32:42.448Z,100818.91
2022-11-06T14:35:53.108Z,100810.41
2022-11-06T14:38:41.149Z,100812.16
2022-11-06T14:41:47.942Z,100817.44
2022-11-06T14:47:10.268Z,100802.63
2022-11-06T14:49:46.464Z,100806.03
2022-11-06T14:52:18.159Z,100803.41
2022-11-06T14:55:05.093Z,100811.19
2022-11-06T14:57:46.684Z,100807.72
2022-11-06T15:00:37.159Z,100812.00
2022-11-06T15:03:17.893Z,100800.28
2022-11-06T15:05:52.540Z,100813.81
2022-11-06T15:08:52.267Z,100794.19
2022-11-06T15:11:34.594Z,100793.31
2022-11-06T15:14:33.514Z,100791.47
2022-11-06T15:17:07.553Z,100790.13
2022-11-06T15:19:42.518Z,100793.63
2022-11-06T15:22:22.168Z,100790.13
2022-11-06T15:24:56.915Z,100783.56
2022-11-06T15:27:41.790Z,100794.41
2022-11-06T15:30:18.892Z,100789.25
2022-11-06T15:32:50.658Z,100777.47
2022-11-06T15:35:22.168Z,100774.88
2022-11-06T15:37:55.819Z,100788.53
2022-11-06T15:40:29.576Z,100755.34
2022-11-06T15:43:09.427Z,100771.81
2022-11-06T15:45:43.844Z,100778.63
2022-11-06T15:48:25.412Z,100776.06
2022-11-06T15:50:54.797Z,100774.63
2022-11-06T15:53:29.409Z,100777.75
2022-11-06T15:56:02.225Z,100771.56
2022-11-06T15:58:33.425Z,100775.22
2022-11-06T16:01:07.920Z,100775.28
2022-11-06T16:03:47.282Z,100770.31
2022-11-06T16:06:17.301Z,100768.88
2022-11-06T16:08:50.739Z,100770.59
2022-11-06T16:11:22.050Z,100765.38
2022-11-06T16:13:51.987Z,100759.34
2022-11-06T16:16:38.452Z,100756.53
2022-11-06T16:19:19.433Z,100741.34
2022-11-06T16:21:53.172Z,100751.91
2022-11-06T16:24:26.557Z,100754.38
2022-11-06T16:26:55.929Z,100743.44
2022-11-06T16:29:28.400Z,100734.34
2022-11-06T16:32:02.738Z,100742.13
2022-11-06T16:34:45.771Z,100748.06
2022-11-06T16:37:39.774Z,100741.47
2022-11-06T16:40:56.312Z,100734.75
2022-11-06T16:43:26.059Z,100737.16
2022-11-06T16:45:58.309Z,100738.66
2022-11-06T16:48:31.733Z,100739.38
2022-11-06T16:51:03.877Z,100739.38
2022-11-06T16:53:42.954Z,100742.91
2022-11-06T16:56:15.351Z,100746.50
2022-11-06T16:58:51.990Z,100740.19
2022-11-06T17:01:21.688Z,100733.38
2022-11-06T17:03:55.053Z,100726.34
2022-11-06T17:06:26.812Z,100748.22
2022-11-06T17:09:07.868Z,100737.84
2022-11-06T17:11:40.473Z,100748.06
2022-11-06T17:14:20.614Z,100732.94
2022-11-06T17:16:52.492Z,100729.94
2022-11-06T17:19:23.192Z,100733.31
2022-11-06T17:21:53.036Z,100732.53
2022-11-06T17:24:38.389Z,100736.56
2022-11-06T17:27:09.923Z,100734.94
2022-11-06T17:29:39.329Z,100729.72
2022-11-06T17:32:08.704Z,100735.47
2022-11-06T17:34:38.045Z,100743.22
2022-11-06T17:37:07.801Z,100737.88
2022-11-06T17:39:37.520Z,100739.84
2022-11-06T17:42:13.766Z,100733.88
2022-11-06T17:44:43.297Z,100739.19
2022-11-06T17:47:13.027Z,100737.56
2022-11-06T17:49:42.220Z,100702.91
2022-11-06T17:52:11.411Z,100728.16
2022-11-06T17:54:43.282Z,100722.88
2022-11-06T17:57:21.194Z,100710.69
2022-11-06T17:59:53.623Z,100719.41
2022-11-06T18:02:41.184Z,100715.38
2022-11-06T18:05:12.365Z,100700.94
2022-11-06T18:07:41.725Z,100715.09
2022-11-06T18:10:11.861Z,100696.88
2022-11-06T18:12:50.505Z,100705.19
2022-11-06T18:15:20.338Z,100718.88
2022-11-06T18:17:49.821Z,100718.22
2022-11-06T18:20:19.187Z,100719.16
2022-11-06T18:22:48.504Z,100717.84
2022-11-06T18:25:17.734Z,100716.34
2022-11-06T18:27:49.269Z,100716.22
2022-11-06T18:30:18.818Z,100723.66
2022-11-06T18:32:48.059Z,100719.28
2022-11-06T18:35:17.619Z,100721.84
2022-11-06T18:37:46.839Z,100716.81
2022-11-06T18:40:16.291Z,100708.44
2022-11-06T18:42:50.526Z,100713.88
2022-11-06T18:45:22.502Z,100715.75
2022-11-06T18:47:51.362Z,100717.97
2022-11-06T18:50:20.503Z,100711.66
2022-11-06T18:52:57.867Z,100700.16
2022-11-06T18:55:27.636Z,100699.47
2022-11-06T18:57:57.482Z,100688.88
2022-11-06T19:00:29.266Z,100708.06
2022-11-06T19:02:58.685Z,100700.47
2022-11-06T19:05:27.885Z,100717.28
2022-11-06T19:08:07.616Z,100708.78
2022-11-06T19:10:39.804Z,100706.44
2022-11-06T19:13:09.079Z,100696.25
2022-11-06T19:15:40.591Z,100695.53
2022-11-06T19:18:09.904Z,100698.19
2022-11-06T19:20:41.489Z,100675.50
2022-11-06T19:23:15.051Z,100685.94
2022-11-06T19:25:50.870Z,100675.22
2022-11-06T19:28:33.486Z,100663.16
2022-11-06T19:31:07.308Z,100701.22
2022-11-06T19:33:36.734Z,100692.91
2022-11-06T19:36:08.232Z,100684.13
2022-11-06T19:38:42.588Z,100693.91
2022-11-06T19:41:12.260Z,100690.44
2022-11-06T19:43:41.561Z,100691.28
2022-11-06T19:46:12.881Z,100682.72
2022-11-06T19:48:42.752Z,100671.94
2022-11-06T19:51:14.051Z,100678.84
2022-11-06T19:53:48.380Z,100675.53
2022-11-06T19:56:18.620Z,100664.63
2022-11-06T19:58:48.275Z,100674.94
2022-11-06T20:01:20.551Z,100673.06
2022-11-06T20:03:50.417Z,100673.06
2022-11-06T20:06:20.276Z,100659.53
2022-11-06T20:08:50.658Z,100648.16
2022-11-06T20:11:20.066Z,100647.22
2022-11-06T20:13:49.121Z,100657.78
2022-11-06T20:16:27.072Z,100666.63
2022-11-06T20:18:58.109Z,100674.34
2022-11-06T20:21:29.820Z,100660.88
2022-11-06T20:23:59.243Z,100663.28
2022-11-06T20:26:28.408Z,100637.41
2022-11-06T20:28:58.074Z,100651.34
2022-11-06T20:31:29.562Z,100655.72
2022-11-06T20:33:59.417Z,100644.50
2022-11-06T20:36:30.994Z,100637.00
2022-11-06T20:39:02.997Z,100644.78
2022-11-06T20:41:32.900Z,100619.41
2022-11-06T20:44:02.281Z,100630.84
2022-11-06T20:46:33.593Z,100624.00
2022-11-06T20:49:02.954Z,100643.03
2022-11-06T20:51:42.949Z,100639.69
2022-11-06T20:54:22.207Z,100634.19
2022-11-06T20:56:51.606Z,100641.94
2022-11-06T20:59:26.536Z,100643.53
2022-11-06T21:01:57.689Z,100633.34
2022-11-06T21:04:27.045Z,100635.16
2022-11-06T21:06:56.624Z,100631.75
2022-11-06T21:09:32.625Z,100627.88
2022-11-06T21:12:02.105Z,100628.66
2022-11-06T21:14:31.354Z,100628.38
2022-11-06T21:17:15.302Z,100641.06
2022-11-06T21:19:44.753Z,100605.50
2022-11-06T21:22:14.030Z,100624.78
2022-11-06T21:24:48.696Z,100625.75
2022-11-06T21:27:17.884Z,100627.50
2022-11-06T21:29:47.400Z,100625.16
2022-11-06T21:34:53.610Z,100597.75
2022-11-06T21:37:32.339Z,100615.97
2022-11-06T21:40:01.912Z,100617.75
2022-11-06T21:42:32.347Z,100616.16
2022-11-06T21:45:01.609Z,100615.19
2022-11-06T21:47:33.852Z,100614.09
2022-11-06T21:50:03.163Z,100611.63
2022-11-06T21:52:46.028Z,100607.19
2022-11-06T21:55:28.173Z,100615.19
2022-11-06T21:57:57.046Z,100618.94
2022-11-06T22:00:26.224Z,100616.94
2022-11-06T22:02:57.701Z,100591.78
2022-11-06T22:05:27.468Z,100596.69
2022-11-06T22:07:56.616Z,100607.13
2022-11-06T22:10:26.225Z,100580.44
2022-11-06T22:12:55.477Z,100597.81
2022-11-06T22:15:24.726Z,100591.22
2022-11-06T22:17:59.295Z,100598.91
2022-11-06T22:20:30.613Z,100595.69
2022-11-06T22:23:04.954Z,100595.69
2022-11-06T22:25:34.256Z,100586.31
2022-11-06T22:28:03.532Z,100585.25
2022-11-06T22:30:32.735Z,100584.56
2022-11-06T22:33:02.259Z,100587.06
2022-11-06T22:35:33.480Z,100587.91
2022-11-06T22:38:02.742Z,100587.13
2022-11-06T22:40:31.786Z,100590.34
2022-11-06T22:43:01.377Z,100585.94
2022-11-06T22:45:32.949Z,100591.22
2022-11-06T22:48:07.960Z,100591.16
2022-11-06T22:50:39.083Z,100577.53
2022-11-06T22:53:14.615Z,100566.94
2022-11-06T22:55:49.377Z,100581.13
2022-11-06T22:58:18.753Z,100595.69
2022-11-06T23:00:51.055Z,100583.78
2022-11-06T23:03:20.686Z,100583.09
2022-11-06T23:05:52.049Z,100571.59
2022-11-06T23:08:27.116Z,100588.72
2022-11-06T23:10:57.543Z,100581.78
2022-11-06T23:13:33.365Z,100575.19
2022-11-06T23:16:04.383Z,100575.19
2022-11-06T23:18:39.237Z,100570.88
2022-11-06T23:21:16.161Z,100564.81
2022-11-06T23:23:49.075Z,100566.28
2022-11-06T23:26:20.346Z,100567.19
2022-11-06T23:28:49.642Z,100573.06
2022-11-06T23:31:18.818Z,100573.13
2022-11-06T23:33:48.425Z,100558.69
2022-11-06T23:36:21.007Z,100571.59
2022-11-06T23:38:55.605Z,100561.47
2022-11-06T23:41:37.622Z,100562.38
2022-11-06T23:44:26.790Z,100550.97
2022-11-06T23:46:59.190Z,100550.03
2022-11-06T23:49:28.304Z,100557.69
2022-11-06T23:51:59.495Z,100555.28
2022-11-06T23:54:33.836Z,100555.00
2022-11-06T23:57:03.164Z,100554.22
2022-11-06T23:59:32.275Z,100558.28
